• Join FlightAware (Why Join?)
  • Login
  • US Flag 
10:00AM EDT


 

Airport Tracker/Info


-or-


 

Live Flight TrackerFlight Track Log ✈ N678MB ✈ 22-Jun-2013 ✈ KACK - KOXB

Flight Track Log - Related Links

Times and Time Zones

All times are in EDT time to prevent confusion due to time zone crossing. See the N678MB flight status page for this flight to view local times or setup timezone preferences in your user account.

Time Position Orientation Groundspeed Altitude Reporting Facility
EDT Latitude Longitude Course Direction KTS MPH feet Rate Location/Type
07:49PM 41.2389 -70.1378 270° West 187 215 2,700  Level Boston Center
07:50PM 41.2772 -70.1778 322° Northwest 203 234 5,500 2,640 Climbing Boston Center
07:51PM 41.2908 -70.2356 287° West 182 209 8,000 2,280 Climbing Boston Center
07:52PM 41.3089 -70.2956 292° West 175 201 10,100 2,100 Climbing Boston Center
07:53PM 41.3244 -70.3586 288° West 175 201 12,200 1,980 Climbing Boston Center
07:54PM 41.3833 -70.5949 270° West  Level FlightAware Approximate
07:54PM 41.3403 -70.4244 288° West 182 209 14,100  Level Boston Center
07:55PM 41.3603 -70.4903 292° West 187 215 15,800 1,680 Climbing Boston Center
07:56PM 41.3778 -70.5478 292° West 187 215 17,500 1,560 Climbing Boston Center
07:57PM 41.3936 -70.6219 286° West 187 215 19,000 1,440 Climbing Boston Center
07:58PM 41.3783 -70.7000 255° West 192 221 20,400 1,140 Climbing Boston Center
07:59PM 41.3608 -70.7781 253° West 211 243 21,300 900 Climbing Boston Center
08:00PM 41.3411 -70.8614 253° West 227 261 22,300 1,020 Climbing Boston Center
08:01PM 41.3214 -70.9447 253° West 233 268 23,400 1,140 Climbing Boston Center
08:02PM 41.2994 -71.0308 251° West 238 274 24,600 1,200 Climbing Boston Center
08:03PM 41.2797 -71.1114 252° West 238 274 25,800 1,080 Climbing Boston Center
08:04PM 41.2597 -71.2003 253° West 249 287 26,800 960 Climbing Boston Center
08:05PM 41.2400 -71.2889 254° West 249 287 27,800 600 Climbing Boston Center
08:06PM 41.2158 -71.3778 250° West 254 292 28,000 60 Climbing Boston Center
08:07PM 41.1939 -71.4828 255° West 268 308 28,000  Level Boston Center
08:08PM 41.1694 -71.5661 249° West 284 327 28,000  Level Boston Center
08:09PM 41.1328 -71.6711 245° Southwest 290 334 28,000  Level Boston Center
08:10PM 41.0981 -71.7792 247° West 303 349 28,000  Level Boston Center
08:11PM 41.0631 -71.8839 246° West 308 354 28,000  Level Boston Center
08:12PM 41.0283 -71.9944 247° West 320 368 28,000  Level Boston Center
08:13PM 40.9889 -72.0964 243° Southwest 320 368 28,000  Level Boston Center
08:14PM 40.9289 -72.1792 226° Southwest 314 361 28,000  Level Boston Center
08:15PM 40.8664 -72.2644 226° Southwest 314 361 28,000  Level Boston Center
08:16PM 40.8039 -72.3469 225° Southwest 320 368 28,000  Level Boston Center
08:17PM 40.7311 -72.4372 223° Southwest 328 377 28,000  Level Boston Center
08:18PM 40.6811 -72.5031 225° Southwest 328 377 28,000  Level Boston Center
08:19PM 40.6081 -72.6042 226° Southwest 328 377 28,000  Level Boston Center
08:20PM 40.5453 -72.6858 225° Southwest 328 377 28,000  Level Boston Center
08:21PM 40.4847 -72.7703 227° Southwest 328 377 28,000  Level Boston Center
08:22PM 40.4219 -72.8544 226° Southwest 328 377 28,000  Level Boston Center
08:23PM 40.3550 -72.9383 224° Southwest 328 377 28,000  Level Boston Center
08:25PM 40.2478 -73.0911 227° Southwest 318 366 28,000  Level Washington Center
08:26PM 40.1828 -73.1775 225° Southwest 323 372 28,000  Level Washington Center
08:27PM 40.1178 -73.2583 224° Southwest 329 379 28,000  Level Washington Center
08:28PM 40.0550 -73.3444 226° Southwest 329 379 28,000  Level Washington Center
08:29PM 39.9917 -73.4250 224° Southwest 329 379 28,000  Level Washington Center
08:30PM 39.9267 -73.5083 225° Southwest 329 379 28,000  Level Washington Center
08:31PM 39.8656 -73.5967 228° Southwest 329 379 28,000  Level Washington Center
08:32PM 39.8089 -73.6872 231° Southwest 329 379 28,000  Level Washington Center
08:33PM 39.7519 -73.7778 231° Southwest 329 379 28,000 -540 Level Washington Center
08:34PM 39.6928 -73.8711 231° Southwest 334 384 27,000 -1,260 Descending Washington Center
08:35PM 39.6317 -73.9694 231° Southwest 340 391 25,500 -1,560 Descending Washington Center
08:36PM 39.5683 -74.0706 231° Southwest 352 405 24,000 -1,500 Descending Washington Center
08:37PM 39.5006 -74.1553 224° Southwest 357 411 22,600 -1,440 Descending Washington Center
08:38PM 39.4161 -74.2242 212° Southwest 352 405 21,200 -1,500 Descending Washington Center
08:39PM 39.3397 -74.2875 213° Southwest 352 405 19,700 -1,440 Descending Washington Center
08:40PM 39.2611 -74.3531 213° Southwest 340 391 18,300 -1,380 Descending Washington Center
08:41PM 39.1867 -74.4161 213° Southwest 335 386 17,000 -1,200 Descending Washington Center
08:42PM 39.1144 -74.4761 213° Southwest 329 379 15,900 -780 Descending Washington Center
08:43PM 39.0397 -74.5333 211° Southwest 324 373 15,500 -960 Descending Washington Center
08:44PM 38.9675 -74.5931 213° Southwest 324 373 14,100 -1,500 Descending Washington Center
08:45PM 38.8969 -74.6528 213° Southwest 318 366 12,600 -1,380 Descending Washington Center
08:46PM 38.8225 -74.7150 213° Southwest 318 366 11,300 -1,320 Descending Washington Center
08:47PM 38.7542 -74.7692 212° Southwest 306 352 9,900 -1,440 Descending Washington Center
08:48PM 38.6878 -74.8231 212° Southwest 290 334 8,500 -1,020 Descending Washington Center
08:49PM 38.6233 -74.8742 212° Southwest 285 328 8,000 -300 Descending Washington Center
08:50PM 38.5611 -74.9253 213° Southwest 280 322 8,000  Level Washington Center
08:51PM 38.5031 -74.9708 212° Southwest 273 314 8,000  Level Washington Center